Time;durP1;ratioP1;P1;durP2;ratioP2;P2;SDS_P1;SDS_P2;PMS_P1;PMS_P2;Temp;Humidity;BMP_temperature;BMP_pressure;BME280_temperature;BME280_humidity;BME280_pressure;Samples;Min_cycle;Max_cycle;Signal;HPM_P1;HPM_P2
2023/05/18 00:01:52;;;;;;;3.78;1.27;;;11.40;99.90;;;;;;4997519;28;20045;-75
2023/05/18 00:04:22;;;;;;;6.75;1.42;;;11.20;99.90;;;;;;4997752;28;20046;-75
2023/05/18 00:06:55;;;;;;;6.78;1.45;;;11.20;99.90;;;;;;4997584;28;20168;-75
2023/05/18 00:09:25;;;;;;;5.30;1.42;;;11.10;99.90;;;;;;4997651;28;20053;-75
2023/05/18 00:11:54;;;;;;;10.80;1.73;;;11.20;99.90;;;;;;4997399;28;20034;-75
2023/05/18 00:14:19;;;;;;;5.07;1.30;;;11.20;99.90;;;;;;4996578;28;20125;-75
2023/05/18 00:16:46;;;;;;;14.20;1.55;;;11.20;99.90;;;;;;4980202;28;20113;-75
2023/05/18 00:19:13;;;;;;;5.88;1.15;;;11.20;99.90;;;;;;4997546;28;20052;-75
2023/05/18 00:21:45;;;;;;;7.47;1.70;;;11.20;99.90;;;;;;4980000;28;20104;-75
2023/05/18 00:24:11;;;;;;;5.65;1.55;;;11.20;99.90;;;;;;4996868;28;20070;-75
2023/05/18 00:26:41;;;;;;;8.23;1.85;;;11.00;99.90;;;;;;4997135;28;20372;-76
2023/05/18 00:29:07;;;;;;;5.18;1.20;;;11.10;99.90;;;;;;4996919;28;20420;-75
2023/05/18 00:31:35;;;;;;;8.43;2.30;;;11.10;99.90;;;;;;4997404;28;20047;-75
2023/05/18 00:34:08;;;;;;;6.85;1.70;;;11.10;99.90;;;;;;4997103;28;20038;-74
2023/05/18 00:36:35;;;;;;;6.50;1.75;;;11.10;99.90;;;;;;4997155;28;20039;-75
2023/05/18 00:39:01;;;;;;;8.75;2.35;;;11.10;99.90;;;;;;4997036;28;20101;-76
2023/05/18 00:41:27;;;;;;;9.88;1.70;;;11.10;99.90;;;;;;4996787;28;20434;-75
2023/05/18 00:43:54;;;;;;;6.38;1.50;;;11.10;99.90;;;;;;4997267;28;20035;-75
2023/05/18 00:46:24;;;;;;;6.45;1.60;;;11.10;99.90;;;;;;4997211;28;20052;-75
2023/05/18 00:48:51;;;;;;;9.45;1.73;;;11.10;99.90;;;;;;4997165;28;20052;-75
2023/05/18 00:51:18;;;;;;;6.85;1.23;;;11.20;99.90;;;;;;4996741;28;20050;-75
2023/05/18 00:53:45;;;;;;;6.18;1.52;;;11.30;99.90;;;;;;4996564;28;20061;-75
2023/05/18 00:56:11;;;;;;;8.73;1.63;;;11.20;99.90;;;;;;4996878;28;20062;-75
2023/05/18 00:58:41;;;;;;;6.43;1.50;;;11.20;99.90;;;;;;4996994;28;20073;-75
2023/05/18 01:01:08;;;;;;;5.40;1.80;;;11.20;99.90;;;;;;4979736;28;20103;-74
2023/05/18 01:03:37;;;;;;;6.75;1.80;;;11.20;99.90;;;;;;4963542;28;20104;-75
2023/05/18 01:06:07;;;;;;;7.38;1.75;;;11.20;99.90;;;;;;4997050;28;20096;-74
2023/05/18 01:08:35;;;;;;;11.48;1.90;;;11.20;99.90;;;;;;4996755;28;20066;-75
2023/05/18 01:11:20;;;;;;;9.52;1.60;;;11.10;99.90;;;;;;4996744;28;20443;-75
2023/05/18 01:14:03;;;;;;;6.95;1.70;;;11.20;99.90;;;;;;4996753;28;20043;-75
2023/05/18 01:16:36;;;;;;;11.02;1.98;;;11.20;99.90;;;;;;4996750;28;20494;-75
2023/05/18 01:19:29;;;;;;;6.00;2.03;;;11.30;99.90;;;;;;4979563;28;20108;-75
2023/05/18 01:22:07;;;;;;;8.50;1.25;;;11.30;99.90;;;;;;4979747;28;20076;-75
2023/05/18 01:24:47;;;;;;;5.75;1.70;;;11.20;99.90;;;;;;4996261;28;20113;-75
2023/05/18 01:27:16;;;;;;;8.75;1.55;;;11.20;99.90;;;;;;4996629;28;20136;-75
2023/05/18 01:29:44;;;;;;;7.00;1.60;;;11.20;99.90;;;;;;4996621;28;20042;-75
2023/05/18 01:32:18;;;;;;;7.40;1.40;;;11.20;99.90;;;;;;4996889;28;20381;-75
2023/05/18 01:34:44;;;;;;;5.57;1.70;;;11.20;99.90;;;;;;4996462;28;20038;-75
2023/05/18 01:37:09;;;;;;;8.80;1.80;;;11.10;99.90;;;;;;4996576;28;20037;-75
2023/05/18 01:39:35;;;;;;;10.45;1.25;;;11.10;99.90;;;;;;4996521;28;20424;-75
2023/05/18 01:42:13;;;;;;;7.38;1.70;;;11.00;99.90;;;;;;4979660;28;20038;-75
2023/05/18 01:44:53;;;;;;;7.65;1.58;;;11.00;99.90;;;;;;4999449;28;20058;-74
2023/05/18 01:47:19;;;;;;;4.10;1.30;;;11.00;99.90;;;;;;5000037;28;20096;-75
2023/05/18 01:49:47;;;;;;;6.63;1.88;;;11.00;99.90;;;;;;4999995;28;20092;-75
2023/05/18 01:52:28;;;;;;;7.40;1.40;;;10.90;99.90;;;;;;4982443;28;20133;-75
2023/05/18 01:54:58;;;;;;;13.05;1.83;;;10.90;99.90;;;;;;4999916;28;20447;-75
2023/05/18 01:57:28;;;;;;;10.90;1.58;;;11.00;99.90;;;;;;4982629;28;20081;-74
2023/05/18 01:59:55;;;;;;;4.60;1.35;;;11.00;99.90;;;;;;4966444;28;20061;-75
2023/05/18 02:02:20;;;;;;;6.22;1.63;;;11.00;99.90;;;;;;4982558;28;20053;-74
2023/05/18 02:04:48;;;;;;;5.72;2.13;;;11.10;99.90;;;;;;4999692;28;20046;-75
2023/05/18 02:07:13;;;;;;;7.95;2.47;;;11.20;99.90;;;;;;4982959;28;20197;-75
2023/05/18 02:09:39;;;;;;;6.28;1.92;;;11.10;99.90;;;;;;4999675;28;20112;-75
2023/05/18 02:12:05;;;;;;;9.32;1.52;;;11.10;99.90;;;;;;4999668;28;20037;-75
2023/05/18 02:14:32;;;;;;;8.52;1.83;;;11.10;99.90;;;;;;4999544;28;20042;-75
2023/05/18 02:16:58;;;;;;;7.68;1.60;;;11.10;99.90;;;;;;4999716;28;20351;-75
2023/05/18 02:19:24;;;;;;;8.40;1.70;;;11.10;99.90;;;;;;4999352;28;20046;-75
2023/05/18 02:21:50;;;;;;;7.95;1.92;;;11.10;99.90;;;;;;4999395;28;20120;-75
2023/05/18 02:24:17;;;;;;;6.93;2.08;;;11.10;99.90;;;;;;4999019;28;20118;-75
2023/05/18 02:26:43;;;;;;;5.50;1.77;;;11.00;99.90;;;;;;4999438;28;20041;-75
2023/05/18 02:29:10;;;;;;;9.15;1.42;;;11.00;99.90;;;;;;4999492;28;20141;-75
2023/05/18 02:31:39;;;;;;;6.00;1.48;;;11.00;99.90;;;;;;4999126;28;20042;-75
2023/05/18 02:34:05;;;;;;;4.18;1.80;;;11.10;99.90;;;;;;4999192;28;20046;-75
2023/05/18 02:36:39;;;;;;;6.78;1.40;;;11.00;99.90;;;;;;4999382;28;20043;-75
2023/05/18 02:39:05;;;;;;;6.95;1.40;;;11.10;99.90;;;;;;4999378;28;20053;-75
2023/05/18 02:41:35;;;;;;;7.28;1.63;;;11.00;99.90;;;;;;4999179;28;20052;-75
2023/05/18 02:44:02;;;;;;;6.93;1.30;;;11.10;99.90;;;;;;4999058;28;20053;-77
2023/05/18 02:46:28;;;;;;;7.97;1.63;;;11.10;99.90;;;;;;4998908;28;20042;-75
2023/05/18 02:48:54;;;;;;;9.15;1.67;;;11.10;99.90;;;;;;4998869;28;20086;-75
2023/05/18 02:51:20;;;;;;;6.88;2.00;;;11.10;99.90;;;;;;4998750;28;20116;-75
2023/05/18 02:53:46;;;;;;;8.10;1.50;;;11.10;99.90;;;;;;4998493;28;20042;-75
2023/05/18 02:56:12;;;;;;;8.65;1.65;;;11.10;99.90;;;;;;4997824;28;20042;-74
2023/05/18 02:58:38;;;;;;;6.20;1.60;;;11.10;99.90;;;;;;4981565;28;20041;-74
2023/05/18 03:01:07;;;;;;;6.57;1.23;;;11.10;99.90;;;;;;4998907;28;20117;-75
2023/05/18 03:03:33;;;;;;;8.13;1.65;;;11.10;99.90;;;;;;4998724;28;20057;-74
2023/05/18 03:06:02;;;;;;;6.13;1.67;;;11.00;99.90;;;;;;4998735;28;20038;-75
2023/05/18 03:08:30;;;;;;;6.95;2.28;;;11.00;99.90;;;;;;4998600;28;20046;-75
2023/05/18 03:10:58;;;;;;;9.60;2.00;;;11.00;99.90;;;;;;4998539;28;20043;-75
2023/05/18 03:13:25;;;;;;;12.52;2.08;;;11.10;99.90;;;;;;4998873;28;20133;-76
2023/05/18 03:15:50;;;;;;;5.88;1.50;;;11.10;99.90;;;;;;4998249;28;20050;-75
2023/05/18 03:18:19;;;;;;;10.60;2.40;;;11.10;99.90;;;;;;4981112;28;20092;-75
2023/05/18 03:20:45;;;;;;;7.88;1.85;;;11.10;99.90;;;;;;4998310;28;20049;-75
2023/05/18 03:23:11;;;;;;;8.65;1.80;;;11.10;99.90;;;;;;4998135;28;20343;-75
2023/05/18 03:25:36;;;;;;;7.25;1.80;;;11.10;99.90;;;;;;4998034;28;20313;-75
2023/05/18 03:28:05;;;;;;;6.90;1.48;;;11.10;99.90;;;;;;4998219;28;20046;-75
2023/05/18 03:30:34;;;;;;;8.20;1.83;;;11.20;99.90;;;;;;4998168;28;20133;-75
2023/05/18 03:33:01;;;;;;;5.75;1.98;;;11.20;99.90;;;;;;4997916;28;20531;-75
2023/05/18 03:35:27;;;;;;;8.73;1.95;;;11.20;99.90;;;;;;4998052;28;20424;-75
2023/05/18 03:37:53;;;;;;;6.82;1.80;;;11.10;99.90;;;;;;4998061;28;20105;-75
2023/05/18 03:40:19;;;;;;;9.75;2.10;;;11.20;99.90;;;;;;4998089;28;20038;-75
2023/05/18 03:42:45;;;;;;;7.93;1.50;;;11.20;99.90;;;;;;4997769;28;20042;-75
2023/05/18 03:45:11;;;;;;;6.70;1.90;;;11.10;99.90;;;;;;4980884;28;20498;-75
2023/05/18 03:47:38;;;;;;;8.48;1.83;;;11.10;99.90;;;;;;4997859;28;20074;-75
2023/05/18 03:50:05;;;;;;;5.88;1.98;;;11.00;99.90;;;;;;4997904;28;20065;-75
2023/05/18 03:52:33;;;;;;;6.88;1.67;;;11.10;99.90;;;;;;4980394;28;20105;-75
2023/05/18 03:55:00;;;;;;;9.32;1.90;;;11.10;99.90;;;;;;4997714;28;20039;-75
2023/05/18 03:57:27;;;;;;;8.02;2.20;;;11.10;99.90;;;;;;4997599;28;20050;-75
2023/05/18 03:59:52;;;;;;;8.45;2.00;;;11.20;99.90;;;;;;4997661;28;20039;-75
2023/05/18 04:02:18;;;;;;;9.45;1.92;;;11.20;99.90;;;;;;4980365;28;20133;-75
2023/05/18 04:04:47;;;;;;;8.40;1.90;;;11.20;99.90;;;;;;4997470;28;20046;-75
2023/05/18 04:07:16;;;;;;;5.43;1.60;;;11.20;99.90;;;;;;4997175;28;20053;-75
2023/05/18 04:09:43;;;;;;;6.78;2.17;;;11.30;99.90;;;;;;4997335;28;20053;-75
2023/05/18 04:12:09;;;;;;;8.00;1.90;;;11.20;99.90;;;;;;4997519;28;20045;-75
2023/05/18 04:14:35;;;;;;;8.25;2.03;;;11.20;99.90;;;;;;4997626;28;20042;-75
2023/05/18 04:17:03;;;;;;;6.72;1.85;;;11.20;99.90;;;;;;4997410;28;20049;-75
2023/05/18 04:19:33;;;;;;;7.68;1.67;;;11.20;99.90;;;;;;4997353;28;20041;-75
2023/05/18 04:22:03;;;;;;;5.15;1.88;;;11.20;99.90;;;;;;4997494;28;20104;-74
2023/05/18 04:24:31;;;;;;;6.82;1.58;;;11.20;99.90;;;;;;4997249;28;20384;-75
2023/05/18 04:27:01;;;;;;;7.03;2.13;;;11.20;99.90;;;;;;4979882;28;20058;-75
2023/05/18 04:29:27;;;;;;;9.23;2.08;;;11.20;99.90;;;;;;4964149;28;20472;-75
2023/05/18 04:31:58;;;;;;;10.85;2.15;;;11.20;99.90;;;;;;4997329;28;20042;-75
2023/05/18 04:34:25;;;;;;;6.07;1.75;;;11.20;99.90;;;;;;4980389;28;20366;-75
2023/05/18 04:36:53;;;;;;;7.78;2.05;;;11.20;99.90;;;;;;4997340;28;20081;-75
2023/05/18 04:39:19;;;;;;;6.75;1.60;;;11.20;99.90;;;;;;4980425;28;20105;-75
2023/05/18 04:41:45;;;;;;;5.03;1.40;;;11.30;99.90;;;;;;4997331;28;20047;-75
2023/05/18 04:44:12;;;;;;;7.47;1.80;;;11.40;99.90;;;;;;4997015;28;20058;-75
2023/05/18 04:46:39;;;;;;;5.20;1.65;;;11.50;99.90;;;;;;4997191;28;20048;-75
2023/05/18 04:49:05;;;;;;;8.20;2.38;;;11.50;99.90;;;;;;4996887;28;20046;-75
2023/05/18 04:51:33;;;;;;;7.18;1.60;;;11.60;99.90;;;;;;4996663;28;20116;-75
2023/05/18 04:54:00;;;;;;;7.82;2.00;;;11.70;99.90;;;;;;4996836;28;20053;-75
2023/05/18 04:56:25;;;;;;;8.60;1.80;;;11.60;99.90;;;;;;4979733;28;20121;-75
2023/05/18 04:58:51;;;;;;;10.65;1.83;;;11.70;99.90;;;;;;4996828;28;20101;-76
2023/05/18 05:01:17;;;;;;;6.15;1.60;;;11.70;99.90;;;;;;4996881;28;20041;-75
2023/05/18 05:03:43;;;;;;;12.45;2.03;;;11.70;99.90;;;;;;4996883;28;20061;-75
2023/05/18 05:06:10;;;;;;;8.05;1.80;;;11.60;99.90;;;;;;4996748;28;20042;-75
2023/05/18 05:08:36;;;;;;;7.82;1.80;;;11.70;99.90;;;;;;4996695;28;20419;-75
2023/05/18 05:11:02;;;;;;;9.40;1.83;;;11.70;99.90;;;;;;4996970;28;20045;-75
2023/05/18 05:13:29;;;;;;;9.00;1.90;;;11.70;99.90;;;;;;4979748;28;20039;-75
2023/05/18 05:15:54;;;;;;;8.65;1.73;;;11.60;99.90;;;;;;4996686;28;20047;-75
2023/05/18 05:18:20;;;;;;;4.70;1.73;;;11.70;99.90;;;;;;4997694;28;20045;-75
2023/05/18 05:20:46;;;;;;;7.50;1.60;;;11.70;99.90;;;;;;4967309;28;20129;-75
2023/05/18 05:23:12;;;;;;;11.10;2.00;;;11.80;99.90;;;;;;5000190;28;20045;-75
2023/05/18 05:25:38;;;;;;;7.82;1.65;;;11.80;99.90;;;;;;4967036;28;20038;-75
2023/05/18 05:28:03;;;;;;;10.77;1.83;;;11.80;99.90;;;;;;4983495;28;20125;-75
2023/05/18 05:30:31;;;;;;;7.80;1.73;;;11.80;99.90;;;;;;5000400;28;20121;-75
2023/05/18 05:32:56;;;;;;;10.18;2.70;;;11.80;99.90;;;;;;5000565;28;20042;-75
2023/05/18 05:35:22;;;;;;;9.20;1.98;;;11.80;99.90;;;;;;5000186;28;20084;-75
2023/05/18 05:37:48;;;;;;;11.07;2.22;;;11.80;99.90;;;;;;5000441;28;20408;-75
2023/05/18 05:40:13;;;;;;;4.72;1.52;;;11.90;99.90;;;;;;5000266;28;20050;-75
2023/05/18 05:42:40;;;;;;;9.02;1.92;;;11.80;99.90;;;;;;5000152;28;20039;-75
2023/05/18 05:45:07;;;;;;;6.63;1.60;;;11.90;99.90;;;;;;5000089;28;20046;-75
2023/05/18 05:47:33;;;;;;;7.00;2.17;;;12.10;99.90;;;;;;5000016;28;20038;-75
2023/05/18 05:49:58;;;;;;;7.20;1.92;;;12.00;99.90;;;;;;4999847;28;20045;-75
2023/05/18 05:52:27;;;;;;;8.38;2.00;;;11.80;99.90;;;;;;4982564;28;20077;-75
2023/05/18 05:54:53;;;;;;;10.38;1.92;;;11.90;99.90;;;;;;4999857;28;20049;-75
2023/05/18 05:57:19;;;;;;;9.50;1.60;;;11.70;99.90;;;;;;4999950;28;20121;-75
2023/05/18 05:59:45;;;;;;;9.27;1.90;;;11.70;99.90;;;;;;4982818;28;20121;-75
2023/05/18 06:02:11;;;;;;;5.65;1.63;;;11.80;99.90;;;;;;5000007;28;20050;-75
2023/05/18 06:04:37;;;;;;;10.10;2.00;;;12.00;99.90;;;;;;4999916;28;20375;-75
2023/05/18 06:07:02;;;;;;;13.18;2.63;;;12.20;99.90;;;;;;4999779;28;20129;-75
2023/05/18 06:09:28;;;;;;;6.90;1.70;;;12.20;99.90;;;;;;4999563;28;20042;-75
2023/05/18 06:11:54;;;;;;;7.28;1.40;;;12.10;99.90;;;;;;4982466;28;20104;-75
2023/05/18 06:14:20;;;;;;;13.07;1.70;;;12.10;99.90;;;;;;4999514;28;20034;-75
2023/05/18 06:16:46;;;;;;;10.45;1.45;;;12.20;99.90;;;;;;4999781;28;20031;-75
2023/05/18 06:19:12;;;;;;;7.80;1.55;;;12.50;99.90;;;;;;4999477;28;20372;-75
2023/05/18 06:21:38;;;;;;;10.63;1.75;;;12.20;99.90;;;;;;4999697;28;20036;-75
2023/05/18 06:24:04;;;;;;;7.65;1.60;;;12.30;99.90;;;;;;4999005;28;20077;-75
2023/05/18 06:26:30;;;;;;;8.77;1.85;;;12.50;99.90;;;;;;4982415;28;20100;-75
2023/05/18 06:28:56;;;;;;;6.25;2.00;;;12.70;99.90;;;;;;4999170;28;20057;-75
2023/05/18 06:31:22;;;;;;;6.97;1.83;;;12.70;99.90;;;;;;4999188;28;20053;-75
2023/05/18 06:33:47;;;;;;;7.90;1.80;;;12.80;99.90;;;;;;4981805;28;20038;-75
2023/05/18 06:36:17;;;;;;;7.97;1.90;;;12.90;99.90;;;;;;4982050;28;20042;-75
2023/05/18 06:38:43;;;;;;;7.95;1.67;;;12.80;99.90;;;;;;4999448;28;20038;-75
2023/05/18 06:41:08;;;;;;;10.52;2.30;;;12.60;99.90;;;;;;4999078;28;20030;-75
2023/05/18 06:43:34;;;;;;;11.57;1.77;;;12.50;99.90;;;;;;4999281;28;20428;-75
2023/05/18 06:46:00;;;;;;;11.38;2.22;;;12.60;99.90;;;;;;4981813;28;20038;-75
2023/05/18 06:48:27;;;;;;;9.23;1.80;;;12.60;99.90;;;;;;4998845;28;20073;-75
2023/05/18 06:50:53;;;;;;;10.48;2.08;;;12.80;99.90;;;;;;4998609;28;20054;-75
2023/05/18 06:53:19;;;;;;;9.05;1.85;;;12.80;99.90;;;;;;4981347;28;20431;-75
2023/05/18 06:55:45;;;;;;;9.77;1.92;;;12.90;99.90;;;;;;4999054;28;20034;-75
2023/05/18 06:58:11;;;;;;;7.43;1.65;;;12.90;99.90;;;;;;4981712;28;20038;-77
2023/05/18 07:00:38;;;;;;;6.55;1.38;;;12.90;99.90;;;;;;4998869;28;20113;-75
2023/05/18 07:03:04;;;;;;;10.43;2.25;;;12.90;99.90;;;;;;4998653;28;20046;-75
2023/05/18 07:05:30;;;;;;;7.10;1.83;;;13.10;99.90;;;;;;4998559;28;20046;-75
2023/05/18 07:07:56;;;;;;;9.82;1.58;;;13.10;99.90;;;;;;4998495;28;20054;-75
2023/05/18 07:10:22;;;;;;;8.60;1.65;;;13.20;99.90;;;;;;4981112;28;20043;-74
2023/05/18 07:12:48;;;;;;;8.93;1.92;;;13.30;99.90;;;;;;4998766;28;20026;-75
2023/05/18 07:15:14;;;;;;;12.30;1.90;;;13.40;99.90;;;;;;4998452;28;20046;-75
2023/05/18 07:17:40;;;;;;;9.88;1.92;;;13.40;99.90;;;;;;4998339;28;20039;-75
2023/05/18 07:20:07;;;;;;;9.95;1.75;;;13.40;99.90;;;;;;4992319;28;20444;-75
2023/05/18 07:22:33;;;;;;;9.82;1.92;;;13.40;99.90;;;;;;4989814;28;20030;-75
2023/05/18 07:24:59;;;;;;;6.40;1.70;;;13.40;99.90;;;;;;4996262;28;20113;-75
2023/05/18 07:27:26;;;;;;;5.82;1.50;;;13.30;99.90;;;;;;4998299;28;20050;-75
2023/05/18 07:29:52;;;;;;;7.95;1.67;;;13.40;99.90;;;;;;4998050;28;20046;-75
2023/05/18 07:32:18;;;;;;;12.88;2.00;;;13.30;99.90;;;;;;4997984;28;20038;-75
2023/05/18 07:34:45;;;;;;;6.55;1.75;;;13.20;99.90;;;;;;4992687;28;20384;-75
2023/05/18 07:37:11;;;;;;;5.57;1.40;;;13.10;99.90;;;;;;4986403;28;20039;-75
2023/05/18 07:39:37;;;;;;;9.65;2.05;;;13.30;99.90;;;;;;4988303;28;20085;-75
2023/05/18 07:42:03;;;;;;;7.90;1.70;;;12.90;99.90;;;;;;4984256;28;20050;-75
2023/05/18 07:44:29;;;;;;;8.15;1.80;;;12.90;99.90;;;;;;4969603;28;20332;-75
2023/05/18 07:46:55;;;;;;;8.90;1.42;;;12.90;99.90;;;;;;4985606;28;20039;-75
2023/05/18 07:49:22;;;;;;;9.23;1.67;;;13.00;99.90;;;;;;4982049;28;20057;-75
2023/05/18 07:51:48;;;;;;;13.18;2.08;;;13.20;99.90;;;;;;4978373;28;20057;-70
2023/05/18 07:54:14;;;;;;;7.97;1.50;;;13.30;99.90;;;;;;4977935;28;20097;-70
2023/05/18 07:56:40;;;;;;;9.70;1.52;;;13.40;99.90;;;;;;4978389;28;20039;-70
2023/05/18 07:59:08;;;;;;;9.98;1.90;;;13.30;99.90;;;;;;4978153;28;20058;-69
2023/05/18 08:01:34;;;;;;;8.60;1.70;;;13.40;99.90;;;;;;4978075;28;20047;-69
2023/05/18 08:04:00;;;;;;;10.52;1.45;;;13.50;99.90;;;;;;4977996;28;20064;-69
2023/05/18 08:06:26;;;;;;;6.55;1.45;;;13.60;99.90;;;;;;4978279;28;20053;-69
2023/05/18 08:08:51;;;;;;;10.02;2.08;;;13.80;99.90;;;;;;4978004;28;20043;-69
2023/05/18 08:11:17;;;;;;;10.20;1.75;;;13.90;99.90;;;;;;4977874;28;20061;-69
2023/05/18 08:13:43;;;;;;;12.30;1.77;;;13.90;99.90;;;;;;4978171;28;20037;-69
2023/05/18 08:16:08;;;;;;;9.60;1.95;;;14.00;99.90;;;;;;4977828;28;20111;-69
2023/05/18 08:18:34;;;;;;;10.10;1.80;;;14.10;99.90;;;;;;4978842;28;20388;-71
2023/05/18 08:21:02;;;;;;;6.40;1.92;;;14.20;99.90;;;;;;4990652;28;20117;-74
2023/05/18 08:23:28;;;;;;;10.50;2.22;;;14.20;99.90;;;;;;4996599;28;20117;-72
2023/05/18 08:25:55;;;;;;;7.68;1.50;;;14.20;99.90;;;;;;4978109;28;20080;-70
2023/05/18 08:28:22;;;;;;;11.07;2.03;;;14.20;99.90;;;;;;4977730;28;20050;-68
2023/05/18 08:30:47;;;;;;;8.95;1.63;;;14.40;99.90;;;;;;4984452;28;20125;-68
2023/05/18 08:33:13;;;;;;;11.43;1.67;;;14.30;99.90;;;;;;4996980;28;20134;-68
2023/05/18 08:35:39;;;;;;;6.65;1.60;;;14.50;99.90;;;;;;4992634;28;20137;-69
2023/05/18 08:38:04;;;;;;;8.10;1.40;;;14.60;99.90;;;;;;4995294;28;20475;-69
2023/05/18 08:40:41;;;;;;;8.43;1.50;;;14.30;99.90;;;;;;4996814;28;20416;-68
2023/05/18 08:43:17;;;;;;;6.20;1.38;;;14.60;99.90;;;;;;4997005;28;20038;-69
2023/05/18 08:45:53;;;;;;;;;;;14.90;99.90;;;;;;4997513;28;20109;-69
2023/05/18 08:48:22;;;;;;;10.77;1.77;;;15.10;99.90;;;;;;4997189;28;19913;-69
2023/05/18 08:50:50;;;;;;;11.57;1.67;;;15.10;99.90;;;;;;4996637;28;20050;-69
2023/05/18 08:53:17;;;;;;;7.03;1.90;;;15.20;99.90;;;;;;4997628;28;20413;-69
2023/05/18 08:55:45;;;;;;;7.15;1.55;;;15.30;99.90;;;;;;4983839;28;20034;-69
2023/05/18 08:58:16;;;;;;;9.10;1.52;;;15.50;99.90;;;;;;5001350;28;20042;-68
2023/05/18 09:00:42;;;;;;;6.82;1.50;;;15.20;99.90;;;;;;5001034;28;20088;-69
2023/05/18 09:03:08;;;;;;;8.23;1.45;;;14.90;99.90;;;;;;5001061;28;20386;-68
2023/05/18 09:05:33;;;;;;;5.75;1.88;;;15.00;99.90;;;;;;5000859;28;20121;-68
2023/05/18 09:07:59;;;;;;;7.53;1.77;;;15.20;99.90;;;;;;5000744;28;20172;-69
2023/05/18 09:10:25;;;;;;;4.40;1.35;;;15.30;99.90;;;;;;5000632;28;20045;-83
2023/05/18 09:12:53;;;;;;;7.80;1.63;;;15.40;99.90;;;;;;4983520;28;20038;-83
2023/05/18 09:15:20;;;;;;;11.40;2.00;;;15.10;99.90;;;;;;4951652;28;20038;-67
2023/05/18 09:17:46;;;;;;;8.00;1.67;;;14.60;99.90;;;;;;5000640;28;20038;-71
2023/05/18 09:20:12;;;;;;;6.72;1.50;;;15.00;99.90;;;;;;5000788;28;20081;-71
2023/05/18 09:22:39;;;;;;;7.97;1.60;;;15.40;99.90;;;;;;5000467;28;20077;-69
2023/05/18 09:25:08;;;;;;;6.13;1.50;;;15.30;99.90;;;;;;5000322;28;20053;-68
2023/05/18 09:27:34;;;;;;;8.55;1.85;;;15.40;99.90;;;;;;5000769;28;20038;-68
2023/05/18 09:29:59;;;;;;;6.75;1.60;;;15.20;99.90;;;;;;4983060;28;20053;-68
2023/05/18 09:32:25;;;;;;;5.72;1.30;;;14.90;99.90;;;;;;4983405;28;20113;-68
2023/05/18 09:34:52;;;;;;;15.23;2.17;;;15.00;99.90;;;;;;4982407;28;20042;-68
2023/05/18 09:37:19;;;;;;;9.38;1.70;;;15.30;99.90;;;;;;5000545;28;20033;-68
2023/05/18 09:39:56;;;;;;;10.57;1.50;;;15.60;99.90;;;;;;5000239;28;20069;-69
2023/05/18 09:42:47;;;;;;;5.22;1.55;;;15.70;99.90;;;;;;5001417;28;20045;-71
2023/05/18 09:45:25;;;;;;;5.38;1.33;;;15.80;99.90;;;;;;5000529;28;20057;-68
2023/05/18 09:47:52;;;;;;;5.55;1.58;;;15.80;99.90;;;;;;4999848;28;20038;-69
2023/05/18 09:50:22;;;;;;;8.85;1.55;;;16.10;99.90;;;;;;4982742;28;20034;-68
2023/05/18 09:52:48;;;;;;;6.55;1.65;;;16.40;99.90;;;;;;4999741;28;20050;-82
2023/05/18 09:55:18;;;;;;;6.60;1.90;;;16.30;99.90;;;;;;4966151;28;20043;-83
2023/05/18 09:57:55;;;;;;;7.07;1.92;;;16.30;99.90;;;;;;4982834;28;20034;-85
2023/05/18 10:00:21;;;;;;;5.40;1.50;;;15.70;99.90;;;;;;4982664;28;20042;-82
2023/05/18 10:02:51;;;;;;;10.23;2.03;;;15.10;99.90;;;;;;4982903;28;20050;-81
2023/05/18 10:05:29;;;;;;;9.27;1.83;;;15.20;99.90;;;;;;4981999;28;20096;-81
2023/05/18 10:07:56;;;;;;;11.30;1.80;;;15.20;99.90;;;;;;4982784;28;20331;-82
2023/05/18 10:10:24;;;;;;;6.53;1.67;;;15.50;99.90;;;;;;4982355;28;20034;-82
2023/05/18 10:12:51;;;;;;;6.75;1.60;;;15.40;99.90;;;;;;4982625;28;20038;-82
2023/05/18 10:15:20;;;;;;;6.35;1.60;;;15.40;99.90;;;;;;4966314;28;20038;-78
2023/05/18 10:17:47;;;;;;;7.35;1.67;;;15.70;99.90;;;;;;4999724;28;20034;-82
2023/05/18 10:20:19;;;;;;;4.93;1.60;;;15.90;99.90;;;;;;4982642;28;20434;-80
2023/05/18 10:22:47;;;;;;;5.80;1.38;;;15.80;99.90;;;;;;4982290;28;20434;-78
2023/05/18 10:25:21;;;;;;;13.18;4.72;;;15.40;99.90;;;;;;4965865;28;20042;-80
2023/05/18 10:27:54;;;;;;;9.93;2.95;;;15.60;99.90;;;;;;4966065;28;20046;-80
2023/05/18 10:30:21;;;;;;;10.02;3.50;;;15.40;99.90;;;;;;4982318;28;20038;-79
2023/05/18 10:32:48;;;;;;;14.02;2.88;;;15.00;99.90;;;;;;4934512;28;20121;-86
2023/05/18 10:35:14;;;;;;;8.02;1.83;;;14.90;99.90;;;;;;4982116;28;20049;-69
2023/05/18 10:37:47;;;;;;;9.65;3.08;;;15.00;99.90;;;;;;4999490;28;20038;-76
2023/05/18 10:40:14;;;;;;;9.80;2.55;;;15.40;99.90;;;;;;4999443;28;20140;-76
2023/05/18 10:42:41;;;;;;;10.55;1.92;;;15.60;99.90;;;;;;4981903;28;20038;-69
2023/05/18 10:45:09;;;;;;;8.93;1.73;;;15.80;99.90;;;;;;4999140;28;20038;-69
2023/05/18 10:47:38;;;;;;;7.00;1.70;;;16.00;99.90;;;;;;4999112;28;20100;-69
2023/05/18 10:50:05;;;;;;;8.43;1.90;;;16.00;99.90;;;;;;4998917;28;20062;-70
2023/05/18 10:52:32;;;;;;;8.40;2.55;;;15.90;99.90;;;;;;4982351;28;20305;-75
2023/05/18 10:55:03;;;;;;;6.85;1.80;;;15.90;99.90;;;;;;4998462;28;20427;-68
2023/05/18 10:57:35;;;;;;;6.68;1.95;;;16.10;99.90;;;;;;4998974;28;20048;-70
2023/05/18 11:00:04;;;;;;;7.43;1.63;;;16.40;99.90;;;;;;4999065;28;20070;-69
2023/05/18 11:02:30;;;;;;;7.95;1.60;;;16.30;99.90;;;;;;4999017;28;20332;-69
2023/05/18 11:04:56;;;;;;;5.38;1.65;;;16.80;99.90;;;;;;4998781;28;20109;-69
2023/05/18 11:07:22;;;;;;;6.70;1.90;;;17.20;99.90;;;;;;4998522;28;20442;-71
2023/05/18 11:09:48;;;;;;;6.95;1.50;;;17.30;99.90;;;;;;4998507;28;20340;-71
2023/05/18 11:12:16;;;;;;;7.45;1.73;;;17.20;99.90;;;;;;4981475;28;20152;-69
2023/05/18 11:14:49;;;;;;;7.75;1.38;;;17.40;99.90;;;;;;4998597;28;20407;-69
2023/05/18 11:17:22;;;;;;;8.20;1.73;;;17.50;99.90;;;;;;4997943;28;20053;-69
2023/05/18 11:20:12;;;;;;;8.25;1.73;;;17.80;99.90;;;;;;4981175;28;20367;-70
2023/05/18 11:22:48;;;;;;;6.25;1.70;;;17.60;99.90;;;;;;5001733;28;20136;-85
2023/05/18 11:25:23;;;;;;;7.32;1.67;;;16.90;99.90;;;;;;4964654;28;20042;-69
2023/05/18 11:27:53;;;;;;;9.07;1.90;;;17.00;99.90;;;;;;4998572;28;20060;-70
2023/05/18 11:30:32;;;;;;;5.45;1.70;;;17.40;99.90;;;;;;4998148;28;20049;-69
2023/05/18 11:33:10;;;;;;;10.98;2.17;;;17.80;99.90;;;;;;4998385;28;20041;-69
2023/05/18 11:36:11;;;;;;;7.68;1.98;;;17.90;99.90;;;;;;4998228;28;20034;-69
2023/05/18 11:39:03;;;;;;;5.18;1.83;;;18.20;99.90;;;;;;4998267;28;20034;-70
2023/05/18 11:41:34;;;;;;;7.50;1.58;;;17.60;99.90;;;;;;4997964;28;20403;-69
2023/05/18 11:44:15;;;;;;;6.88;1.83;;;17.90;99.90;;;;;;4990769;28;20093;-70
2023/05/18 11:46:52;;;;;;;7.93;1.83;;;18.00;99.90;;;;;;4997524;28;20447;-70
2023/05/18 11:49:21;;;;;;;5.97;1.65;;;18.10;99.90;;;;;;4995734;28;20150;-70
2023/05/18 11:52:13;;;;;;;8.80;1.75;;;18.00;99.90;;;;;;4978025;28;20410;-70
2023/05/18 11:54:39;;;;;;;7.68;1.90;;;18.40;99.90;;;;;;4977756;28;20345;-70
2023/05/18 11:57:06;;;;;;;5.57;1.95;;;18.40;99.90;;;;;;4978069;28;20043;-69
2023/05/18 11:59:35;;;;;;;7.88;1.58;;;18.40;99.90;;;;;;4978188;28;20054;-73
2023/05/18 12:02:02;;;;;;;5.53;1.73;;;18.30;99.90;;;;;;4980330;28;20043;-69
2023/05/18 12:04:30;;;;;;;7.40;1.85;;;18.50;99.90;;;;;;4996009;28;20420;-71
2023/05/18 12:06:57;;;;;;;7.05;1.80;;;18.40;99.90;;;;;;4997512;28;20363;-69
2023/05/18 12:09:24;;;;;;;10.15;1.70;;;18.70;99.90;;;;;;4997406;28;20039;-70
2023/05/18 12:11:50;;;;;;;8.07;1.90;;;18.80;99.90;;;;;;4997587;28;20121;-70
2023/05/18 12:14:19;;;;;;;9.80;1.70;;;19.10;99.90;;;;;;4997714;28;20070;-70
2023/05/18 12:16:47;;;;;;;9.18;1.73;;;19.30;99.90;;;;;;4997319;28;20046;-70
2023/05/18 12:19:12;;;;;;;6.90;1.73;;;19.70;99.90;;;;;;4997461;28;20034;-70
2023/05/18 12:21:38;;;;;;;7.85;1.80;;;20.00;99.90;;;;;;4997306;28;20113;-70
2023/05/18 12:24:04;;;;;;;7.05;1.67;;;19.40;99.90;;;;;;4996985;28;20121;-70
2023/05/18 12:26:30;;;;;;;6.38;1.55;;;19.50;99.90;;;;;;4997109;28;20046;-70
2023/05/18 12:28:59;;;;;;;7.30;2.00;;;19.70;99.90;;;;;;4997381;28;20069;-70
2023/05/18 12:31:25;;;;;;;7.28;2.35;;;20.00;99.90;;;;;;4997132;28;20112;-69
2023/05/18 12:33:53;;;;;;;9.68;1.58;;;20.20;99.90;;;;;;4997278;28;20344;-70
2023/05/18 12:36:19;;;;;;;5.45;1.80;;;19.80;99.90;;;;;;4997175;28;20439;-69
2023/05/18 12:38:48;;;;;;;7.90;2.10;;;19.70;99.90;;;;;;4996950;28;20172;-70
2023/05/18 12:41:23;;;;;;;6.22;1.52;;;19.80;99.90;;;;;;4997352;28;20069;-70
2023/05/18 12:43:50;;;;;;;4.53;1.50;;;20.20;99.90;;;;;;4996973;28;20034;-69
2023/05/18 12:46:16;;;;;;;7.15;1.90;;;20.60;99.90;;;;;;4997248;28;20331;-69
2023/05/18 12:48:46;;;;;;;8.77;1.90;;;20.70;99.90;;;;;;4996998;28;20038;-69
2023/05/18 12:51:18;;;;;;;7.35;1.90;;;20.60;99.90;;;;;;4996904;28;20065;-71